Accueil
METAR-TAF:

METAR-TAF

Aéroports :

Aéroport de Méchria

Méchria, Algérie

latitude: 34-56N, longitude: 000-26W, altitude: 1149 m

Observation

Le bulletin a été fait il y a 17 minutes, à 07:00 UTC
Vent 14 kt de nord
Température 4°C
Humidité 87%
Pression 1023 hPa
Visibilité 10 km ou plus
Nuages épars à une hauteur de 1600 ft
Nuages épars à une hauteur de 3000 ft

METAR: DAAY 200700Z 01014KT 9999 SCT016 SCT030 04/02 Q1023

Heure: 08:17 (07:17 UTC)

Prévision

Le bulletin a été fait il y a 2 heures et 17 minutes, à 05:00 UTC
Prévision valable du 20 à 06 UTC au 20 à 15 UTC
Vent 13 kt de nord
Visibilité 10 km ou plus
Quelques nuages à une hauteur de 2000 ft
Nuages épars à une hauteur de 3000 ft
Probabilité 30% :
Temporairement
du 20 à 06 UTC au 20 à 10 UTC
Visibilité: 5000 m
Nuages fragmentés à une hauteur de 2600 ft
pluie

TAF: DAAY 200500Z 2006/2015 36013KT 9999 FEW020 SCT030 PROB30 TEMPO 2006/2010 5000 RA BKN026

Observations et prévisions météorologiques de plus de 4000 aéroports (messages METAR et TAF).

Les stations disponibles sont représentées par des disques jaunes et rouges sur la carte.

Passer la souris dessus pour voir le nom de la station.

Cliquer dessus pour voir les observations et prévisions météorologiques.

Pour changer de carte: cliquez sur les boutons verts avec une croix noire pour zoomer, sur le bouton vert avec un tiret pour effectuer un zoom arrière, ou sur les flèches vertes pour les cartes adjacentes.


METAR-TAF: